Time;durP1;ratioP1;P1;durP2;ratioP2;P2;SDS_P1;SDS_P2;PMS_P1;PMS_P2;Temp;Humidity;BMP_temperature;BMP_pressure;BME280_temperature;BME280_humidity;BME280_pressure;Samples;Min_cycle;Max_cycle;Signal;HPM_P1;HPM_P2
2022/09/06 00:01:10;;;;;;;;;4.00;4.00;;;;;;;;6314281;22;45340;-94
2022/09/06 00:03:36;;;;;;;;;5.00;4.33;;;;;;;;6310026;22;45419;-94
2022/09/06 00:06:08;;;;;;;;;3.33;3.00;;;;;;;;6312842;22;46268;-93
2022/09/06 00:08:33;;;;;;;;;3.67;3.67;;;;;;;;6311559;22;45246;-93
2022/09/06 00:10:58;;;;;;;;;2.67;2.67;;;;;;;;6310925;22;45198;-94
2022/09/06 00:13:24;;;;;;;;;5.00;4.00;;;;;;;;6313309;22;45209;-94
2022/09/06 00:15:49;;;;;;;;;4.67;4.00;;;;;;;;6310406;22;47279;-93
2022/09/06 00:18:14;;;;;;;;;5.33;3.67;;;;;;;;6303946;22;45271;-94
2022/09/06 00:20:40;;;;;;;;;2.67;2.67;;;;;;;;6302792;22;45542;-93
2022/09/06 00:23:05;;;;;;;;;4.67;4.67;;;;;;;;6302535;22;45543;-94
2022/09/06 00:25:32;;;;;;;;;4.33;4.00;;;;;;;;6301574;22;47020;-93
2022/09/06 00:27:58;;;;;;;;;5.00;5.00;;;;;;;;6302254;22;45659;-93
2022/09/06 00:30:24;;;;;;;;;3.00;3.00;;;;;;;;6302424;22;45349;-93
2022/09/06 00:32:49;;;;;;;;;3.67;2.67;;;;;;;;6302703;22;45277;-94
2022/09/06 00:35:15;;;;;;;;;3.00;3.00;;;;;;;;6303592;22;48056;-94
2022/09/06 00:37:40;;;;;;;;;5.33;3.00;;;;;;;;6303785;22;45872;-94
2022/09/06 00:40:06;;;;;;;;;5.00;4.00;;;;;;;;6303269;22;45340;-94
2022/09/06 00:42:31;;;;;;;;;4.67;3.00;;;;;;;;6304005;22;45353;-93
2022/09/06 00:44:56;;;;;;;;;3.00;2.00;;;;;;;;6303031;22;45962;-94
2022/09/06 00:47:21;;;;;;;;;4.00;3.00;;;;;;;;6304054;22;45400;-94
2022/09/06 00:49:50;;;;;;;;;3.67;3.00;;;;;;;;6303008;22;45238;-94
2022/09/06 00:52:16;;;;;;;;;4.00;4.00;;;;;;;;6304078;22;45280;-94
2022/09/06 00:54:42;;;;;;;;;3.00;3.00;;;;;;;;6302372;22;47029;-92
2022/09/06 00:57:07;;;;;;;;;5.00;5.00;;;;;;;;6303833;22;45409;-94
2022/09/06 00:59:34;;;;;;;;;5.00;5.00;;;;;;;;6303022;22;45339;-93
2022/09/06 01:01:59;;;;;;;;;7.00;4.00;;;;;;;;6304046;22;45463;-93
2022/09/06 01:04:25;;;;;;;;;5.00;4.00;;;;;;;;6302345;22;47893;-94
2022/09/06 01:07:09;;;;;;;;;5.00;5.00;;;;;;;;6303828;22;45366;-94
2022/09/06 01:09:54;;;;;;;;;4.00;4.00;;;;;;;;6302574;22;45826;-94
2022/09/06 01:12:35;;;;;;;;;4.00;4.00;;;;;;;;6303485;22;45403;-95
2022/09/06 01:15:08;;;;;;;;;3.67;3.67;;;;;;;;6302523;22;48159;-93
2022/09/06 01:17:55;;;;;;;;;4.00;4.00;;;;;;;;6303474;22;45241;-94
2022/09/06 01:20:31;;;;;;;;;8.67;6.00;;;;;;;;6303467;22;45296;-93
2022/09/06 01:22:56;;;;;;;;;4.00;4.00;;;;;;;;6302914;22;45618;-94
2022/09/06 01:25:34;;;;;;;;;6.33;6.00;;;;;;;;6302318;22;47474;-93
2022/09/06 01:28:18;;;;;;;;;2.67;2.00;;;;;;;;6303305;22;45386;-94
2022/09/06 01:30:49;;;;;;;;;6.00;4.33;;;;;;;;6303006;22;45694;-93
2022/09/06 01:33:25;;;;;;;;;5.00;4.67;;;;;;;;6302686;22;45484;-94
2022/09/06 01:35:59;;;;;;;;;4.00;4.00;;;;;;;;6304917;22;45460;-93
2022/09/06 01:38:25;;;;;;;;;4.00;3.00;;;;;;;;6303110;22;45225;-93
2022/09/06 01:40:50;;;;;;;;;4.33;4.33;;;;;;;;6302577;22;45338;-93
2022/09/06 01:43:26;;;;;;;;;4.00;3.00;;;;;;;;6303180;22;45459;-94
2022/09/06 01:45:51;;;;;;;;;7.00;4.00;;;;;;;;6304468;22;45383;-93
2022/09/06 01:48:36;;;;;;;;;4.00;4.00;;;;;;;;6303716;22;45481;-93
2022/09/06 01:51:13;;;;;;;;;6.67;5.33;;;;;;;;6312718;22;45240;-93
2022/09/06 01:53:38;;;;;;;;;5.00;3.00;;;;;;;;6312374;22;45290;-93
2022/09/06 01:56:23;;;;;;;;;6.00;5.00;;;;;;;;6311463;22;48183;-93
2022/09/06 01:58:51;;;;;;;;;5.00;5.00;;;;;;;;6312031;22;45409;-94
2022/09/06 02:01:21;;;;;;;;;6.67;5.00;;;;;;;;6312640;22;45568;-94
2022/09/06 02:03:51;;;;;;;;;5.00;4.67;;;;;;;;6312679;22;45746;-94
2022/09/06 02:06:19;;;;;;;;;5.00;4.00;;;;;;;;6313191;22;47091;-94
2022/09/06 02:08:47;;;;;;;;;5.00;5.00;;;;;;;;6313194;22;46036;-94
2022/09/06 02:11:13;;;;;;;;;3.67;3.00;;;;;;;;6313191;22;45329;-94
2022/09/06 02:13:50;;;;;;;;;4.33;4.33;;;;;;;;6312777;22;45439;-93
2022/09/06 02:16:18;;;;;;;;;5.67;5.00;;;;;;;;6305842;22;47141;-92
2022/09/06 02:18:48;;;;;;;;;4.00;4.00;;;;;;;;6304866;22;45229;-92
2022/09/06 02:21:15;;;;;;;;;5.00;4.00;;;;;;;;6305870;22;45316;-93
2022/09/06 02:23:41;;;;;;;;;4.33;4.00;;;;;;;;6303160;22;45365;-93
2022/09/06 02:26:10;;;;;;;;;3.33;3.33;;;;;;;;6302431;22;47316;-93
2022/09/06 02:28:35;;;;;;;;;5.33;5.00;;;;;;;;6302134;22;45352;-93
2022/09/06 02:31:03;;;;;;;;;4.67;3.33;;;;;;;;6302823;22;45401;-93
2022/09/06 02:33:30;;;;;;;;;5.00;5.00;;;;;;;;6302862;22;45522;-94
2022/09/06 02:35:55;;;;;;;;;4.00;4.00;;;;;;;;6303031;22;48134;-94
2022/09/06 02:38:21;;;;;;;;;5.67;4.00;;;;;;;;6302882;22;45342;-93
2022/09/06 02:40:47;;;;;;;;;8.00;6.67;;;;;;;;6302756;22;45399;-93
2022/09/06 02:43:12;;;;;;;;;5.33;5.33;;;;;;;;6304737;22;45170;-93
2022/09/06 02:45:37;;;;;;;;;5.00;4.00;;;;;;;;6302347;22;47437;-94
2022/09/06 02:48:03;;;;;;;;;4.00;4.00;;;;;;;;6302876;22;45342;-93
2022/09/06 02:50:28;;;;;;;;;6.33;4.33;;;;;;;;6303037;22;45331;-94
2022/09/06 02:53:01;;;;;;;;;7.67;6.00;;;;;;;;6303480;22;45285;-93
2022/09/06 02:55:26;;;;;;;;;6.00;6.00;;;;;;;;6302029;22;48181;-94
2022/09/06 02:57:51;;;;;;;;;5.33;5.33;;;;;;;;6305036;22;45674;-93
2022/09/06 03:00:16;;;;;;;;;6.00;4.00;;;;;;;;6302757;22;45650;-93
2022/09/06 03:02:41;;;;;;;;;6.00;4.00;;;;;;;;6303626;22;45638;-93
2022/09/06 03:05:07;;;;;;;;;8.00;6.00;;;;;;;;6301932;22;47958;-94
2022/09/06 03:07:32;;;;;;;;;6.67;5.00;;;;;;;;6303176;22;45312;-93
2022/09/06 03:09:58;;;;;;;;;8.33;6.00;;;;;;;;6302704;22;45427;-93
2022/09/06 03:12:23;;;;;;;;;7.00;6.00;;;;;;;;6303392;22;45562;-94
2022/09/06 03:14:48;;;;;;;;;3.67;3.67;;;;;;;;6301704;22;48206;-93
2022/09/06 03:17:13;;;;;;;;;8.33;5.33;;;;;;;;6303193;22;45341;-93
2022/09/06 03:19:38;;;;;;;;;5.00;5.00;;;;;;;;6303051;22;45263;-93
2022/09/06 03:22:04;;;;;;;;;5.00;5.00;;;;;;;;6303738;22;45178;-94
2022/09/06 03:24:29;;;;;;;;;4.00;4.00;;;;;;;;6301735;22;47135;-93
2022/09/06 03:26:54;;;;;;;;;5.00;5.00;;;;;;;;6299575;22;45277;-94
2022/09/06 03:29:19;;;;;;;;;5.00;5.00;;;;;;;;6245150;22;45394;-93
2022/09/06 03:31:44;;;;;;;;;6.67;6.67;;;;;;;;6246053;22;45353;-93
2022/09/06 03:34:09;;;;;;;;;5.00;5.00;;;;;;;;6244550;22;46930;-93
2022/09/06 03:36:35;;;;;;;;;6.00;5.00;;;;;;;;6245590;22;45600;-93
2022/09/06 03:39:00;;;;;;;;;3.33;3.33;;;;;;;;6245387;22;45382;-93
2022/09/06 03:41:25;;;;;;;;;6.00;5.00;;;;;;;;6246653;22;45351;-92
2022/09/06 03:43:50;;;;;;;;;4.00;4.00;;;;;;;;6244568;22;47412;-93
2022/09/06 03:46:15;;;;;;;;;6.00;4.50;;;;;;;;6249024;22;45269;-94
2022/09/06 03:48:41;;;;;;;;;5.00;5.00;;;;;;;;6255130;22;45462;-93
2022/09/06 03:51:06;;;;;;;;;4.67;4.67;;;;;;;;6255364;22;45576;-93
2022/09/06 03:53:31;;;;;;;;;5.67;4.67;;;;;;;;6255047;22;47240;-92
2022/09/06 03:55:57;;;;;;;;;8.00;7.67;;;;;;;;6282463;22;45646;-94
2022/09/06 03:58:23;;;;;;;;;6.67;5.33;;;;;;;;6255064;22;45907;-93
2022/09/06 04:00:48;;;;;;;;;5.00;5.00;;;;;;;;6255896;22;45315;-93
2022/09/06 04:03:13;;;;;;;;;7.33;7.33;;;;;;;;6255845;22;47449;-93
2022/09/06 04:05:39;;;;;;;;;6.33;6.33;;;;;;;;6255185;22;45765;-93
2022/09/06 04:08:04;;;;;;;;;6.00;5.00;;;;;;;;6256937;22;45350;-93
2022/09/06 04:10:30;;;;;;;;;6.67;6.67;;;;;;;;6256784;22;45476;-93
2022/09/06 04:12:55;;;;;;;;;7.33;7.33;;;;;;;;6250584;22;47689;-93
2022/09/06 04:15:20;;;;;;;;;6.67;6.67;;;;;;;;6246190;22;45561;-94
2022/09/06 04:17:46;;;;;;;;;4.00;4.00;;;;;;;;6247988;22;45435;-93
2022/09/06 04:20:12;;;;;;;;;7.00;7.00;;;;;;;;6252176;22;45418;-94
2022/09/06 04:22:37;;;;;;;;;8.33;6.00;;;;;;;;6247561;22;47584;-93
2022/09/06 04:25:03;;;;;;;;;5.33;5.00;;;;;;;;6245947;22;45205;-94
2022/09/06 04:27:28;;;;;;;;;8.00;6.00;;;;;;;;6262683;22;45326;-94
2022/09/06 04:29:54;;;;;;;;;7.00;7.00;;;;;;;;6303554;22;45475;-94
2022/09/06 04:32:19;;;;;;;;;8.33;7.00;;;;;;;;6304627;22;47019;-93
2022/09/06 04:34:44;;;;;;;;;5.00;5.00;;;;;;;;6303766;22;45212;-94
2022/09/06 04:37:10;;;;;;;;;5.00;5.00;;;;;;;;6303887;22;45206;-93
2022/09/06 04:39:35;;;;;;;;;6.67;6.00;;;;;;;;6303272;22;45412;-93
2022/09/06 04:42:00;;;;;;;;;8.00;7.00;;;;;;;;6303472;22;47070;-93
2022/09/06 04:44:25;;;;;;;;;5.00;5.00;;;;;;;;6304122;22;45252;-94
2022/09/06 04:47:01;;;;;;;;;5.67;5.67;;;;;;;;6305227;22;45308;-93
2022/09/06 04:49:26;;;;;;;;;9.33;7.33;;;;;;;;6305525;22;45644;-93
2022/09/06 04:51:51;;;;;;;;;6.33;6.33;;;;;;;;6303671;22;48093;-93
2022/09/06 04:54:17;;;;;;;;;6.00;6.00;;;;;;;;6303554;22;45229;-94
2022/09/06 04:56:42;;;;;;;;;6.67;6.00;;;;;;;;6304640;22;45313;-94
2022/09/06 04:59:07;;;;;;;;;8.33;5.33;;;;;;;;6304188;22;45600;-93
2022/09/06 05:01:32;;;;;;;;;5.00;5.00;;;;;;;;6306167;22;46096;-93
2022/09/06 05:03:57;;;;;;;;;5.00;5.00;;;;;;;;6303465;22;45356;-93
2022/09/06 05:06:23;;;;;;;;;5.67;5.67;;;;;;;;6304173;22;45463;-92
2022/09/06 05:08:49;;;;;;;;;6.67;6.67;;;;;;;;6305488;22;45294;-93
2022/09/06 05:11:15;;;;;;;;;6.00;6.00;;;;;;;;6303584;22;46980;-94
2022/09/06 05:13:41;;;;;;;;;5.67;4.67;;;;;;;;6303527;22;45479;-93
2022/09/06 05:16:06;;;;;;;;;7.00;6.00;;;;;;;;6303747;22;45807;-94
2022/09/06 05:18:32;;;;;;;;;8.33;6.67;;;;;;;;6305465;22;45391;-94
2022/09/06 05:20:57;;;;;;;;;6.00;6.00;;;;;;;;6303799;22;46976;-94
2022/09/06 05:23:23;;;;;;;;;5.33;4.33;;;;;;;;6303171;22;45257;-94
2022/09/06 05:25:48;;;;;;;;;5.33;5.33;;;;;;;;6303386;22;45197;-93
2022/09/06 05:28:14;;;;;;;;;6.00;5.00;;;;;;;;6303394;22;45238;-94
2022/09/06 05:30:40;;;;;;;;;4.67;4.00;;;;;;;;6305793;22;45302;-94
2022/09/06 05:33:06;;;;;;;;;8.67;5.00;;;;;;;;6305668;22;45162;-94
2022/09/06 05:35:31;;;;;;;;;7.67;6.00;;;;;;;;6304151;22;45298;-94
2022/09/06 05:37:56;;;;;;;;;7.00;5.00;;;;;;;;6304126;22;45229;-94
2022/09/06 05:40:21;;;;;;;;;6.00;5.33;;;;;;;;6303591;22;47148;-94
2022/09/06 05:42:46;;;;;;;;;6.33;6.00;;;;;;;;6312575;22;45297;-94
2022/09/06 05:45:12;;;;;;;;;6.33;5.33;;;;;;;;6309840;22;45305;-93
2022/09/06 05:47:37;;;;;;;;;4.00;4.00;;;;;;;;6305571;22;45124;-95
2022/09/06 05:50:02;;;;;;;;;4.33;4.33;;;;;;;;6308824;22;47923;-94
2022/09/06 05:52:28;;;;;;;;;5.00;5.00;;;;;;;;6314370;22;45309;-93
2022/09/06 05:54:53;;;;;;;;;6.00;6.00;;;;;;;;6314418;22;45359;-93
2022/09/06 05:57:18;;;;;;;;;6.00;5.00;;;;;;;;6315135;22;44978;-94
2022/09/06 05:59:44;;;;;;;;;6.67;4.00;;;;;;;;6313283;22;47943;-94
2022/09/06 06:02:09;;;;;;;;;5.33;5.00;;;;;;;;6314629;22;45311;-95
2022/09/06 06:04:34;;;;;;;;;8.00;5.33;;;;;;;;6313364;22;45416;-95
2022/09/06 06:07:00;;;;;;;;;4.33;4.33;;;;;;;;6311797;22;45334;-94
2022/09/06 06:09:25;;;;;;;;;6.67;5.00;;;;;;;;6312315;22;46635;-94
2022/09/06 06:11:50;;;;;;;;;5.33;5.33;;;;;;;;6306164;22;45302;-95
2022/09/06 06:14:16;;;;;;;;;6.00;4.33;;;;;;;;6306045;22;45405;-94
2022/09/06 06:16:41;;;;;;;;;4.67;4.67;;;;;;;;6304505;22;45257;-94
2022/09/06 06:19:06;;;;;;;;;4.67;4.67;;;;;;;;6305390;22;45422;-95
2022/09/06 06:21:32;;;;;;;;;4.67;4.67;;;;;;;;6305477;22;45402;-94
2022/09/06 06:23:58;;;;;;;;;6.33;6.33;;;;;;;;6303316;22;45403;-94
2022/09/06 06:26:24;;;;;;;;;9.00;5.00;;;;;;;;6276325;22;45314;-87
2022/09/06 06:28:50;;;;;;;;;4.00;4.00;;;;;;;;6275015;22;45737;-88
2022/09/06 06:31:15;;;;;;;;;5.67;4.67;;;;;;;;6272183;22;45308;-89
2022/09/06 06:33:41;;;;;;;;;4.33;4.33;;;;;;;;6272648;22;45348;-88
2022/09/06 06:36:17;;;;;;;;;3.67;3.67;;;;;;;;6272571;22;45321;-86
2022/09/06 06:38:44;;;;;;;;;6.00;5.00;;;;;;;;6273192;22;45544;-87
2022/09/06 06:41:10;;;;;;;;;6.00;4.00;;;;;;;;6271991;22;45397;-87
2022/09/06 06:43:36;;;;;;;;;2.67;2.67;;;;;;;;6272426;22;45354;-87
2022/09/06 06:46:12;;;;;;;;;6.33;6.00;;;;;;;;6272390;22;45342;-86
2022/09/06 06:48:40;;;;;;;;;5.67;4.67;;;;;;;;6244733;22;47059;-87
2022/09/06 06:51:09;;;;;;;;;6.67;5.33;;;;;;;;6272486;22;45258;-87
2022/09/06 06:53:34;;;;;;;;;6.33;5.00;;;;;;;;6272745;22;45293;-87
2022/09/06 06:56:00;;;;;;;;;9.00;5.67;;;;;;;;6270272;22;45313;-87
2022/09/06 06:58:25;;;;;;;;;6.00;6.00;;;;;;;;6239451;22;47244;-86
2022/09/06 07:00:50;;;;;;;;;5.33;5.33;;;;;;;;6270709;22;45359;-86
2022/09/06 07:03:16;;;;;;;;;6.33;5.33;;;;;;;;6271578;22;45338;-86
2022/09/06 07:05:50;;;;;;;;;5.67;5.67;;;;;;;;6271356;22;45274;-86
2022/09/06 07:08:17;;;;;;;;;5.00;5.00;;;;;;;;6271188;22;47419;-87
2022/09/06 07:10:42;;;;;;;;;4.33;4.33;;;;;;;;6271345;22;45641;-86
2022/09/06 07:13:07;;;;;;;;;5.00;5.00;;;;;;;;6271763;22;45368;-87
2022/09/06 07:15:32;;;;;;;;;7.00;5.33;;;;;;;;6272095;22;45302;-87
2022/09/06 07:17:57;;;;;;;;;4.67;4.67;;;;;;;;6269722;22;45298;-86
2022/09/06 07:20:25;;;;;;;;;5.00;5.00;;;;;;;;6271263;22;45588;-90
2022/09/06 07:23:06;;;;;;;;;5.00;5.00;;;;;;;;6272341;22;45249;-93
2022/09/06 07:25:32;;;;;;;;;3.33;3.33;;;;;;;;6271031;22;45574;-92
2022/09/06 07:27:58;;;;;;;;;4.67;4.33;;;;;;;;6267122;22;47669;-94
2022/09/06 07:30:23;;;;;;;;;4.33;4.33;;;;;;;;6275250;22;45529;-92
2022/09/06 07:32:48;;;;;;;;;4.67;4.00;;;;;;;;6252200;22;45425;-93
2022/09/06 07:35:14;;;;;;;;;5.00;5.00;;;;;;;;6254601;22;45285;-96
2022/09/06 07:37:39;;;;;;;;;4.00;4.00;;;;;;;;6257067;22;47501;-94
2022/09/06 07:40:04;;;;;;;;;5.00;5.00;;;;;;;;6256248;22;45155;-92
2022/09/06 07:42:30;;;;;;;;;9.00;4.67;;;;;;;;6256111;22;45303;-96
2022/09/06 07:44:56;;;;;;;;;5.00;5.00;;;;;;;;6257235;22;45245;-94
2022/09/06 07:47:21;;;;;;;;;4.00;4.00;;;;;;;;6253196;22;47882;-92
2022/09/06 07:49:46;;;;;;;;;4.33;4.00;;;;;;;;6281170;22;45533;-95
2022/09/06 07:52:12;;;;;;;;;5.67;4.00;;;;;;;;6255090;22;45319;-93
2022/09/06 07:54:37;;;;;;;;;7.33;7.00;;;;;;;;6254039;22;45293;-95
2022/09/06 07:57:02;;;;;;;;;2.00;2.00;;;;;;;;6253790;22;47226;-95
2022/09/06 07:59:27;;;;;;;;;5.00;5.00;;;;;;;;6246207;22;45309;-93
2022/09/06 08:01:52;;;;;;;;;3.33;3.33;;;;;;;;6248493;22;45459;-91
2022/09/06 08:04:18;;;;;;;;;3.67;3.67;;;;;;;;6270521;22;45440;-88
2022/09/06 08:06:48;;;;;;;;;3.67;3.33;;;;;;;;6270797;22;46392;-88
2022/09/06 08:09:13;;;;;;;;;6.00;5.00;;;;;;;;6271024;22;45326;-87
2022/09/06 08:11:39;;;;;;;;;4.67;4.67;;;;;;;;6270726;22;45408;-88
2022/09/06 08:14:05;;;;;;;;;2.67;2.33;;;;;;;;6271188;22;45369;-87
2022/09/06 08:16:31;;;;;;;;;5.33;4.00;;;;;;;;6266428;22;45413;-86
2022/09/06 08:18:58;;;;;;;;;3.00;3.00;;;;;;;;6242233;22;46191;-89
2022/09/06 08:21:24;;;;;;;;;3.00;3.00;;;;;;;;6244902;22;45336;-96
2022/09/06 08:23:50;;;;;;;;;4.67;4.00;;;;;;;;6256830;22;45253;-96
2022/09/06 08:26:16;;;;;;;;;4.00;4.00;;;;;;;;6285874;22;45178;-96
2022/09/06 08:28:42;;;;;;;;;5.00;4.00;;;;;;;;6280484;22;45345;-93
2022/09/06 08:31:08;;;;;;;;;4.67;4.67;;;;;;;;6306857;22;45286;-95
2022/09/06 08:33:33;;;;;;;;;3.67;3.67;;;;;;;;6302613;22;45265;-90
2022/09/06 08:35:59;;;;;;;;;5.00;3.00;;;;;;;;6308117;22;46446;-91
2022/09/06 08:38:25;;;;;;;;;5.67;4.00;;;;;;;;6302690;22;45288;-93
2022/09/06 08:40:51;;;;;;;;;4.00;3.67;;;;;;;;6301349;22;45314;-94
2022/09/06 08:43:18;;;;;;;;;4.67;4.00;;;;;;;;6303593;22;45286;-94
2022/09/06 08:45:46;;;;;;;;;4.00;3.00;;;;;;;;6299724;22;47115;-94
2022/09/06 08:48:12;;;;;;;;;3.00;3.00;;;;;;;;6301886;22;45371;-92
2022/09/06 08:50:40;;;;;;;;;3.00;3.00;;;;;;;;6301278;22;45633;-89
2022/09/06 08:53:16;;;;;;;;;4.00;3.00;;;;;;;;6302632;22;45281;-88
2022/09/06 08:55:53;;;;;;;;;3.33;3.33;;;;;;;;6303601;22;45356;-95
2022/09/06 08:58:25;;;;;;;;;5.00;3.67;;;;;;;;6306508;22;45424;-95
2022/09/06 09:00:57;;;;;;;;;5.00;3.00;;;;;;;;6302729;22;45267;-94
2022/09/06 09:03:25;;;;;;;;;2.00;2.00;;;;;;;;6301871;22;45495;-89
2022/09/06 09:05:52;;;;;;;;;2.33;2.33;;;;;;;;6300656;22;48145;-90
2022/09/06 09:08:17;;;;;;;;;3.33;3.33;;;;;;;;6301928;22;45328;-90
2022/09/06 09:11:01;;;;;;;;;3.00;3.00;;;;;;;;6302912;22;45330;-90
2022/09/06 09:13:33;;;;;;;;;3.00;3.00;;;;;;;;6303025;22;45545;-88
2022/09/06 09:15:58;;;;;;;;;5.00;2.67;;;;;;;;6304041;22;46728;-87
2022/09/06 09:18:25;;;;;;;;;4.00;4.00;;;;;;;;6301496;22;45280;-88
2022/09/06 09:20:51;;;;;;;;;2.00;2.00;;;;;;;;6306474;22;45438;-90
2022/09/06 09:23:16;;;;;;;;;3.00;3.00;;;;;;;;6316114;22;45275;-93
2022/09/06 09:25:42;;;;;;;;;3.67;3.67;;;;;;;;6319360;22;47895;-93
2022/09/06 09:28:19;;;;;;;;;3.67;3.00;;;;;;;;6313979;22;45398;-96
2022/09/06 09:30:46;;;;;;;;;6.00;3.67;;;;;;;;6320027;22;45361;-95
2022/09/06 09:33:29;;;;;;;;;2.00;2.00;;;;;;;;6321476;22;44786;-96
2022/09/06 09:35:55;;;;;;;;;2.33;2.33;;;;;;;;6321890;22;47246;-96
2022/09/06 09:38:23;;;;;;;;;3.67;3.67;;;;;;;;6322774;22;44695;-96
2022/09/06 09:40:56;;;;;;;;;3.00;3.00;;;;;;;;6311258;22;45314;-89
2022/09/06 09:43:24;;;;;;;;;2.00;2.00;;;;;;;;6310822;22;45503;-91
2022/09/06 09:46:11;;;;;;;;;3.33;1.33;;;;;;;;6308947;22;46494;-90
2022/09/06 09:48:37;;;;;;;;;2.00;2.00;;;;;;;;6299832;22;45332;-86
2022/09/06 09:51:16;;;;;;;;;1.00;1.00;;;;;;;;6303843;22;45297;-88
2022/09/06 09:54:01;;;;;;;;;1.00;1.00;;;;;;;;6303593;22;45281;-87
2022/09/06 09:56:33;;;;;;;;;4.67;1.67;;;;;;;;6303124;22;45352;-88
2022/09/06 09:58:58;;;;;;;;;3.67;3.67;;;;;;;;6300449;22;45369;-87
2022/09/06 10:01:25;;;;;;;;;1.33;1.00;;;;;;;;6302622;22;45444;-88
2022/09/06 10:03:58;;;;;;;;;1.67;1.67;;;;;;;;6301087;22;45387;-88
2022/09/06 10:06:25;;;;;;;;;2.00;2.00;;;;;;;;6301972;22;45676;-87
2022/09/06 10:08:50;;;;;;;;;3.00;1.00;;;;;;;;6302501;22;45419;-87
2022/09/06 10:11:35;;;;;;;;;2.00;2.00;;;;;;;;6303239;22;45471;-87
2022/09/06 10:14:10;;;;;;;;;3.00;2.00;;;;;;;;6300811;22;45284;-88
2022/09/06 10:16:43;;;;;;;;;2.00;2.00;;;;;;;;6300802;22;46614;-87
2022/09/06 10:19:22;;;;;;;;;1.00;1.00;;;;;;;;6299800;22;45384;-87
2022/09/06 10:21:49;;;;;;;;;2.33;2.33;;;;;;;;6301858;22;45355;-88
2022/09/06 10:24:25;;;;;;;;;1.00;1.00;;;;;;;;6301954;22;45411;-88
2022/09/06 10:26:51;;;;;;;;;4.00;3.67;;;;;;;;6296411;22;47480;-90
2022/09/06 10:29:40;;;;;;;;;4.67;4.00;;;;;;;;6242198;22;45257;-88
2022/09/06 10:32:08;;;;;;;;;7.00;4.33;;;;;;;;6226256;22;45619;-88
2022/09/06 10:34:48;;;;;;;;;6.33;6.33;;;;;;;;6242713;22;45751;-88
2022/09/06 10:37:27;;;;;;;;;16.33;12.33;;;;;;;;6270691;22;46682;-92
2022/09/06 10:39:54;;;;;;;;;6.33;5.00;;;;;;;;6270339;22;45646;-89
2022/09/06 10:42:19;;;;;;;;;3.67;2.00;;;;;;;;6243597;22;45314;-93
2022/09/06 10:44:48;;;;;;;;;3.33;3.33;;;;;;;;6243530;22;45523;-93
2022/09/06 10:47:14;;;;;;;;;1.33;1.33;;;;;;;;6243836;22;47298;-92
2022/09/06 10:49:44;;;;;;;;;2.33;2.33;;;;;;;;6243692;22;45423;-96
2022/09/06 10:52:12;;;;;;;;;1.00;1.00;;;;;;;;6246788;22;45371;-93
2022/09/06 10:54:39;;;;;;;;;1.33;1.33;;;;;;;;6244977;22;45296;-86
2022/09/06 10:57:15;;;;;;;;;0.67;0.67;;;;;;;;6269954;22;45552;-90
2022/09/06 10:59:56;;;;;;;;;0.00;0.00;;;;;;;;6242102;22;45355;-92
2022/09/06 11:02:39;;;;;;;;;1.00;1.00;;;;;;;;6272024;22;45378;-90
2022/09/06 11:05:07;;;;;;;;;1.33;0.67;;;;;;;;6243004;22;45278;-88
2022/09/06 11:07:36;;;;;;;;;1.00;1.00;;;;;;;;6271646;22;45628;-88
2022/09/06 11:10:22;;;;;;;;;1.67;0.00;;;;;;;;6271060;22;45321;-88
2022/09/06 11:12:51;;;;;;;;;1.00;1.00;;;;;;;;6273428;22;45290;-88
2022/09/06 11:15:17;;;;;;;;;1.67;1.67;;;;;;;;6275686;22;45275;-90
2022/09/06 11:17:46;;;;;;;;;2.33;2.33;;;;;;;;6275986;22;45710;-88
2022/09/06 11:20:27;;;;;;;;;3.00;3.00;;;;;;;;6274628;22;45286;-88
2022/09/06 11:23:11;;;;;;;;;2.67;1.00;;;;;;;;6275482;22;45561;-88
2022/09/06 11:25:55;;;;;;;;;2.33;2.33;;;;;;;;6273431;22;45290;-88
2022/09/06 11:28:26;;;;;;;;;2.00;2.00;;;;;;;;6277243;22;46159;-88
2022/09/06 11:30:55;;;;;;;;;3.67;2.33;;;;;;;;6249133;22;45367;-89
2022/09/06 11:33:25;;;;;;;;;1.67;1.67;;;;;;;;6252969;22;45314;-89
2022/09/06 11:35:51;;;;;;;;;4.67;2.00;;;;;;;;6277112;22;45372;-88
2022/09/06 11:38:16;;;;;;;;;2.00;2.00;;;;;;;;6243563;22;47769;-88
2022/09/06 11:40:43;;;;;;;;;2.50;2.50;;;;;;;;6240989;22;45969;-89
2022/09/06 11:43:35;;;;;;;;;3.00;2.00;;;;;;;;6270309;22;45242;-88
2022/09/06 11:46:00;;;;;;;;;3.33;1.67;;;;;;;;6241867;22;45494;-89
2022/09/06 11:48:25;;;;;;;;;2.25;2.25;;;;;;;;6239858;22;46880;-89
2022/09/06 11:50:53;;;;;;;;;1.33;1.33;;;;;;;;6268532;22;45592;-89
2022/09/06 11:53:19;;;;;;;;;2.67;1.00;;;;;;;;6270974;22;45388;-89
2022/09/06 11:56:11;;;;;;;;;1.00;1.00;;;;;;;;6241176;22;45508;-89
2022/09/06 11:58:39;;;;;;;;;2.00;1.00;;;;;;;;6234796;22;47182;-89
2022/09/06 12:01:15;;;;;;;;;4.00;3.00;;;;;;;;6270649;22;45373;-88
2022/09/06 12:03:46;;;;;;;;;1.00;1.00;;;;;;;;6269638;22;45320;-89
2022/09/06 12:06:31;;;;;;;;;3.00;2.00;;;;;;;;6269482;22;45349;-89
2022/09/06 12:08:57;;;;;;;;;2.00;2.00;;;;;;;;6240407;22;46850;-89
2022/09/06 12:11:28;;;;;;;;;2.33;2.00;;;;;;;;6270063;22;45391;-88
2022/09/06 12:13:56;;;;;;;;;2.00;2.00;;;;;;;;6271215;22;45401;-89
2022/09/06 12:16:22;;;;;;;;;4.00;2.67;;;;;;;;6242554;22;45330;-90
2022/09/06 12:18:47;;;;;;;;;1.67;1.00;;;;;;;;6242370;22;46371;-90
2022/09/06 12:21:31;;;;;;;;;4.67;3.00;;;;;;;;6242916;22;45308;-93
2022/09/06 12:23:57;;;;;;;;;4.00;2.67;;;;;;;;6270316;22;45591;-89
2022/09/06 12:26:41;;;;;;;;;1.00;1.00;;;;;;;;6241630;22;45412;-89
2022/09/06 12:29:09;;;;;;;;;3.00;2.00;;;;;;;;6243460;22;48268;-89
2022/09/06 12:31:52;;;;;;;;;1.00;1.00;;;;;;;;6243995;22;45333;-90
2022/09/06 12:34:22;;;;;;;;;2.00;1.00;;;;;;;;6244337;22;45435;-90
2022/09/06 12:36:59;;;;;;;;;0.00;0.00;;;;;;;;6244568;22;45453;-89
2022/09/06 12:39:25;;;;;;;;;1.00;1.00;;;;;;;;6271843;22;45633;-89
2022/09/06 12:41:55;;;;;;;;;0.00;0.00;;;;;;;;6243478;22;45388;-90
2022/09/06 12:44:34;;;;;;;;;1.67;1.67;;;;;;;;6270342;22;45290;-89
2022/09/06 12:47:05;;;;;;;;;0.33;0.33;;;;;;;;6271320;22;45368;-90
2022/09/06 12:49:31;;;;;;;;;0.00;0.00;;;;;;;;6270930;22;45362;-89
2022/09/06 12:52:10;;;;;;;;;0.00;0.00;;;;;;;;6244273;22;45277;-90
2022/09/06 12:54:46;;;;;;;;;1.00;1.00;;;;;;;;6271413;22;45302;-87
2022/09/06 12:57:20;;;;;;;;;0.00;0.00;;;;;;;;6271712;22;45373;-87
2022/09/06 12:59:48;;;;;;;;;0.00;0.00;;;;;;;;6242740;22;47133;-87
2022/09/06 13:02:16;;;;;;;;;1.00;1.00;;;;;;;;6271288;22;45283;-88
2022/09/06 13:04:45;;;;;;;;;1.33;0.00;;;;;;;;6270722;22;45291;-87
2022/09/06 13:07:15;;;;;;;;;1.00;1.00;;;;;;;;6246837;22;45266;-88
2022/09/06 13:09:42;;;;;;;;;1.00;1.00;;;;;;;;6244544;22;48297;-87
2022/09/06 13:12:09;;;;;;;;;1.00;1.00;;;;;;;;6273235;22;45296;-87
2022/09/06 13:14:35;;;;;;;;;0.67;0.00;;;;;;;;6272592;22;45356;-86
2022/09/06 13:17:00;;;;;;;;;1.33;0.33;;;;;;;;6273505;22;45285;-87
2022/09/06 13:19:28;;;;;;;;;1.00;1.00;;;;;;;;6247873;22;47370;-87
2022/09/06 13:21:54;;;;;;;;;0.00;0.00;;;;;;;;6280249;22;45254;-90
2022/09/06 13:24:23;;;;;;;;;1.33;1.00;;;;;;;;6254094;22;45513;-89
2022/09/06 13:26:48;;;;;;;;;2.33;1.00;;;;;;;;6250456;22;45255;-89
2022/09/06 13:29:16;;;;;;;;;1.67;1.67;;;;;;;;6246268;22;47557;-87
2022/09/06 13:31:45;;;;;;;;;1.67;1.67;;;;;;;;6272101;22;45716;-87
2022/09/06 13:34:18;;;;;;;;;3.00;1.33;;;;;;;;6243744;22;45285;-89
2022/09/06 13:36:47;;;;;;;;;3.00;3.00;;;;;;;;6271122;22;45354;-87
2022/09/06 13:39:27;;;;;;;;;2.00;2.00;;;;;;;;6271144;22;46546;-88
2022/09/06 13:41:59;;;;;;;;;3.67;3.00;;;;;;;;6243040;22;45341;-87
2022/09/06 13:44:28;;;;;;;;;2.00;2.00;;;;;;;;6272039;22;45666;-87
2022/09/06 13:46:54;;;;;;;;;1.67;1.67;;;;;;;;6271063;22;45662;-87
2022/09/06 13:49:19;;;;;;;;;2.67;2.67;;;;;;;;6270191;22;46410;-87
2022/09/06 13:51:44;;;;;;;;;2.00;2.00;;;;;;;;6243170;22;45980;-88
2022/09/06 13:54:11;;;;;;;;;1.67;1.67;;;;;;;;6271932;22;45456;-87
2022/09/06 13:56:38;;;;;;;;;2.00;2.00;;;;;;;;6270642;22;45412;-88
2022/09/06 13:59:03;;;;;;;;;2.67;2.33;;;;;;;;6243596;22;47401;-88
2022/09/06 14:01:29;;;;;;;;;3.00;3.00;;;;;;;;6270937;22;45432;-87
2022/09/06 14:03:54;;;;;;;;;3.00;3.00;;;;;;;;6243917;22;45501;-88
2022/09/06 14:06:19;;;;;;;;;2.33;2.33;;;;;;;;6270988;22;45390;-89
2022/09/06 14:08:44;;;;;;;;;3.33;3.33;;;;;;;;6270464;22;46170;-89
2022/09/06 14:11:09;;;;;;;;;3.00;3.00;;;;;;;;6243170;22;45395;-89
2022/09/06 14:13:35;;;;;;;;;2.33;2.33;;;;;;;;6271327;22;45317;-90
2022/09/06 14:16:00;;;;;;;;;3.00;3.00;;;;;;;;6271623;22;45229;-89
2022/09/06 14:18:25;;;;;;;;;3.00;3.00;;;;;;;;6239863;22;47236;-89
2022/09/06 14:20:51;;;;;;;;;3.00;3.00;;;;;;;;6269825;22;45309;-89
2022/09/06 14:23:16;;;;;;;;;2.33;2.33;;;;;;;;6271730;22;45468;-89
2022/09/06 14:25:41;;;;;;;;;3.33;3.33;;;;;;;;6243323;22;45411;-89
2022/09/06 14:28:07;;;;;;;;;4.00;4.00;;;;;;;;6275811;22;47174;-89
2022/09/06 14:30:32;;;;;;;;;3.00;3.00;;;;;;;;6302369;22;45242;-89
2022/09/06 14:32:57;;;;;;;;;3.00;3.00;;;;;;;;6301321;22;45353;-89
2022/09/06 14:35:22;;;;;;;;;3.33;3.33;;;;;;;;6299835;22;45433;-89
2022/09/06 14:37:48;;;;;;;;;3.00;3.00;;;;;;;;6302921;22;45362;-89
2022/09/06 14:40:14;;;;;;;;;7.33;3.00;;;;;;;;6302330;22;45389;-89
2022/09/06 14:42:39;;;;;;;;;3.00;3.00;;;;;;;;6300795;22;45257;-89
2022/09/06 14:45:04;;;;;;;;;3.67;3.00;;;;;;;;6300149;22;45336;-89
2022/09/06 14:47:30;;;;;;;;;3.00;3.00;;;;;;;;6301281;22;47471;-89
2022/09/06 14:49:55;;;;;;;;;3.00;3.00;;;;;;;;6298627;22;45765;-90